sensor_id;sensor_type;location;lat;lon;timestamp;P1;durP1;ratioP1;P2;durP2;ratioP2
65279;SDS011;51878;55.748;48.742;2022-07-03T00:00:13;10.95;;;7.32;;
65279;SDS011;51878;55.748;48.742;2022-07-03T00:02:40;11.25;;;7.43;;
65279;SDS011;51878;55.748;48.742;2022-07-03T00:05:07;16.77;;;8.43;;
65279;SDS011;51878;55.748;48.742;2022-07-03T00:07:38;16.50;;;8.40;;
65279;SDS011;51878;55.748;48.742;2022-07-03T00:10:05;18.60;;;8.25;;
65279;SDS011;51878;55.748;48.742;2022-07-03T00:12:33;16.38;;;8.02;;
65279;SDS011;51878;55.748;48.742;2022-07-03T00:15:00;15.32;;;8.68;;
65279;SDS011;51878;55.748;48.742;2022-07-03T00:17:28;12.32;;;7.97;;
65279;SDS011;51878;55.748;48.742;2022-07-03T00:19:56;14.07;;;8.23;;
65279;SDS011;51878;55.748;48.742;2022-07-03T00:22:24;20.00;;;9.68;;
65279;SDS011;51878;55.748;48.742;2022-07-03T00:25:00;15.88;;;9.13;;
65279;SDS011;51878;55.748;48.742;2022-07-03T00:27:31;15.85;;;8.82;;
65279;SDS011;51878;55.748;48.742;2022-07-03T00:30:00;13.40;;;8.88;;
65279;SDS011;51878;55.748;48.742;2022-07-03T00:32:29;13.88;;;8.63;;
65279;SDS011;51878;55.748;48.742;2022-07-03T00:34:57;13.55;;;7.50;;
65279;SDS011;51878;55.748;48.742;2022-07-03T00:37:25;12.30;;;8.02;;
65279;SDS011;51878;55.748;48.742;2022-07-03T00:39:52;12.48;;;8.60;;
65279;SDS011;51878;55.748;48.742;2022-07-03T00:42:19;12.23;;;7.22;;
65279;SDS011;51878;55.748;48.742;2022-07-03T00:44:50;9.65;;;7.47;;
65279;SDS011;51878;55.748;48.742;2022-07-03T00:47:22;11.43;;;7.95;;
65279;SDS011;51878;55.748;48.742;2022-07-03T00:49:52;10.85;;;7.53;;
65279;SDS011;51878;55.748;48.742;2022-07-03T00:52:23;11.82;;;6.85;;
65279;SDS011;51878;55.748;48.742;2022-07-03T00:54:54;10.25;;;7.18;;
65279;SDS011;51878;55.748;48.742;2022-07-03T00:57:23;11.77;;;8.05;;
65279;SDS011;51878;55.748;48.742;2022-07-03T00:59:52;9.73;;;7.32;;
65279;SDS011;51878;55.748;48.742;2022-07-03T01:05:10;13.48;;;7.38;;
65279;SDS011;51878;55.748;48.742;2022-07-03T01:07:48;8.25;;;6.78;;
65279;SDS011;51878;55.748;48.742;2022-07-03T01:11:07;15.63;;;7.63;;
65279;SDS011;51878;55.748;48.742;2022-07-03T01:21:54;13.18;;;7.53;;
65279;SDS011;51878;55.748;48.742;2022-07-03T01:24:54;12.23;;;6.78;;
65279;SDS011;51878;55.748;48.742;2022-07-03T01:27:44;10.00;;;7.30;;
65279;SDS011;51878;55.748;48.742;2022-07-03T01:30:29;15.95;;;7.30;;
65279;SDS011;51878;55.748;48.742;2022-07-03T01:33:01;10.18;;;6.28;;
65279;SDS011;51878;55.748;48.742;2022-07-03T01:35:32;8.55;;;6.93;;
65279;SDS011;51878;55.748;48.742;2022-07-03T01:38:03;11.73;;;6.45;;
65279;SDS011;51878;55.748;48.742;2022-07-03T01:40:33;11.90;;;6.28;;
65279;SDS011;51878;55.748;48.742;2022-07-03T01:43:03;9.68;;;5.97;;
65279;SDS011;51878;55.748;48.742;2022-07-03T01:45:47;9.77;;;6.78;;
65279;SDS011;51878;55.748;48.742;2022-07-03T01:48:14;7.35;;;5.80;;
65279;SDS011;51878;55.748;48.742;2022-07-03T01:50:42;13.15;;;6.57;;
65279;SDS011;51878;55.748;48.742;2022-07-03T01:53:13;7.70;;;5.78;;
65279;SDS011;51878;55.748;48.742;2022-07-03T01:55:43;8.75;;;6.15;;
65279;SDS011;51878;55.748;48.742;2022-07-03T01:58:10;7.43;;;5.90;;
65279;SDS011;51878;55.748;48.742;2022-07-03T02:00:45;8.95;;;5.50;;
65279;SDS011;51878;55.748;48.742;2022-07-03T02:03:32;13.82;;;6.85;;
65279;SDS011;51878;55.748;48.742;2022-07-03T02:06:12;8.15;;;5.53;;
65279;SDS011;51878;55.748;48.742;2022-07-03T02:11:44;7.93;;;5.60;;
65279;SDS011;51878;55.748;48.742;2022-07-03T02:16:49;9.52;;;5.90;;
65279;SDS011;51878;55.748;48.742;2022-07-03T02:19:44;9.27;;;6.10;;
65279;SDS011;51878;55.748;48.742;2022-07-03T02:22:13;10.13;;;5.78;;
65279;SDS011;51878;55.748;48.742;2022-07-03T02:24:44;6.75;;;5.32;;
65279;SDS011;51878;55.748;48.742;2022-07-03T02:27:15;8.82;;;6.10;;
65279;SDS011;51878;55.748;48.742;2022-07-03T02:29:47;6.85;;;5.65;;
65279;SDS011;51878;55.748;48.742;2022-07-03T02:32:20;9.18;;;5.63;;
65279;SDS011;51878;55.748;48.742;2022-07-03T02:35:08;9.55;;;5.88;;
65279;SDS011;51878;55.748;48.742;2022-07-03T02:37:39;12.48;;;5.80;;
65279;SDS011;51878;55.748;48.742;2022-07-03T02:40:16;7.38;;;5.43;;
65279;SDS011;51878;55.748;48.742;2022-07-03T02:43:02;12.50;;;5.38;;
65279;SDS011;51878;55.748;48.742;2022-07-03T02:45:40;8.50;;;5.60;;
65279;SDS011;51878;55.748;48.742;2022-07-03T02:48:57;9.63;;;5.63;;
65279;SDS011;51878;55.748;48.742;2022-07-03T02:51:10;7.63;;;5.22;;
65279;SDS011;51878;55.748;48.742;2022-07-03T02:53:49;7.75;;;5.38;;
65279;SDS011;51878;55.748;48.742;2022-07-03T02:56:37;7.90;;;5.22;;
65279;SDS011;51878;55.748;48.742;2022-07-03T03:02:13;7.25;;;5.70;;
65279;SDS011;51878;55.748;48.742;2022-07-03T03:04:48;8.77;;;5.15;;
65279;SDS011;51878;55.748;48.742;2022-07-03T03:07:24;7.63;;;5.10;;
65279;SDS011;51878;55.748;48.742;2022-07-03T03:09:55;6.45;;;5.15;;
65279;SDS011;51878;55.748;48.742;2022-07-03T03:12:28;7.47;;;5.03;;
65279;SDS011;51878;55.748;48.742;2022-07-03T03:15:00;10.35;;;5.43;;
65279;SDS011;51878;55.748;48.742;2022-07-03T03:17:36;7.47;;;4.95;;
65279;SDS011;51878;55.748;48.742;2022-07-03T03:20:08;7.60;;;4.63;;
65279;SDS011;51878;55.748;48.742;2022-07-03T03:23:06;7.40;;;5.10;;
65279;SDS011;51878;55.748;48.742;2022-07-03T03:25:36;6.70;;;4.50;;
65279;SDS011;51878;55.748;48.742;2022-07-03T03:28:04;8.02;;;4.80;;
65279;SDS011;51878;55.748;48.742;2022-07-03T03:30:31;6.53;;;4.57;;
65279;SDS011;51878;55.748;48.742;2022-07-03T03:32:58;8.00;;;4.57;;
65279;SDS011;51878;55.748;48.742;2022-07-03T03:35:25;6.95;;;4.72;;
65279;SDS011;51878;55.748;48.742;2022-07-03T03:37:53;7.50;;;4.45;;
65279;SDS011;51878;55.748;48.742;2022-07-03T03:40:20;7.55;;;4.57;;
65279;SDS011;51878;55.748;48.742;2022-07-03T03:42:48;10.18;;;4.82;;
65279;SDS011;51878;55.748;48.742;2022-07-03T03:45:15;5.68;;;4.10;;
65279;SDS011;51878;55.748;48.742;2022-07-03T03:47:42;4.47;;;3.72;;
65279;SDS011;51878;55.748;48.742;2022-07-03T03:50:09;6.95;;;4.32;;
65279;SDS011;51878;55.748;48.742;2022-07-03T03:52:37;7.00;;;3.83;;
65279;SDS011;51878;55.748;48.742;2022-07-03T03:55:04;5.22;;;3.50;;
65279;SDS011;51878;55.748;48.742;2022-07-03T03:57:32;4.97;;;3.53;;
65279;SDS011;51878;55.748;48.742;2022-07-03T04:00:00;5.85;;;3.70;;
65279;SDS011;51878;55.748;48.742;2022-07-03T04:02:29;5.43;;;3.80;;
65279;SDS011;51878;55.748;48.742;2022-07-03T04:04:56;8.10;;;3.58;;
65279;SDS011;51878;55.748;48.742;2022-07-03T04:07:23;5.20;;;3.65;;
65279;SDS011;51878;55.748;48.742;2022-07-03T04:09:50;6.25;;;3.90;;
65279;SDS011;51878;55.748;48.742;2022-07-03T04:12:18;10.30;;;4.43;;
65279;SDS011;51878;55.748;48.742;2022-07-03T04:14:45;11.07;;;4.05;;
65279;SDS011;51878;55.748;48.742;2022-07-03T04:17:12;5.82;;;3.85;;
65279;SDS011;51878;55.748;48.742;2022-07-03T04:19:39;7.38;;;3.72;;
65279;SDS011;51878;55.748;48.742;2022-07-03T04:22:06;7.47;;;3.92;;
65279;SDS011;51878;55.748;48.742;2022-07-03T04:24:37;6.35;;;4.22;;
65279;SDS011;51878;55.748;48.742;2022-07-03T04:27:04;6.82;;;4.30;;
65279;SDS011;51878;55.748;48.742;2022-07-03T04:29:31;6.53;;;4.32;;
65279;SDS011;51878;55.748;48.742;2022-07-03T04:31:59;6.75;;;4.65;;
65279;SDS011;51878;55.748;48.742;2022-07-03T04:34:26;8.55;;;4.60;;
65279;SDS011;51878;55.748;48.742;2022-07-03T04:36:53;7.68;;;4.47;;
65279;SDS011;51878;55.748;48.742;2022-07-03T04:39:21;7.38;;;4.57;;
65279;SDS011;51878;55.748;48.742;2022-07-03T04:41:48;8.75;;;4.55;;
65279;SDS011;51878;55.748;48.742;2022-07-03T04:44:15;7.75;;;4.97;;
65279;SDS011;51878;55.748;48.742;2022-07-03T04:46:42;6.63;;;4.82;;
65279;SDS011;51878;55.748;48.742;2022-07-03T04:49:09;6.78;;;4.53;;
65279;SDS011;51878;55.748;48.742;2022-07-03T04:51:36;9.93;;;4.43;;
65279;SDS011;51878;55.748;48.742;2022-07-03T04:54:03;10.50;;;4.32;;
65279;SDS011;51878;55.748;48.742;2022-07-03T04:56:31;5.13;;;4.30;;
65279;SDS011;51878;55.748;48.742;2022-07-03T04:58:58;8.10;;;4.40;;
65279;SDS011;51878;55.748;48.742;2022-07-03T05:01:25;10.20;;;4.45;;
65279;SDS011;51878;55.748;48.742;2022-07-03T05:03:52;6.40;;;3.88;;
65279;SDS011;51878;55.748;48.742;2022-07-03T05:06:20;11.15;;;4.30;;
65279;SDS011;51878;55.748;48.742;2022-07-03T05:08:47;8.60;;;4.70;;
65279;SDS011;51878;55.748;48.742;2022-07-03T05:11:14;6.95;;;4.57;;
65279;SDS011;51878;55.748;48.742;2022-07-03T05:13:41;6.38;;;4.60;;
65279;SDS011;51878;55.748;48.742;2022-07-03T05:16:08;9.95;;;5.20;;
65279;SDS011;51878;55.748;48.742;2022-07-03T05:18:35;12.48;;;5.63;;
65279;SDS011;51878;55.748;48.742;2022-07-03T05:21:02;7.50;;;5.03;;
65279;SDS011;51878;55.748;48.742;2022-07-03T05:23:29;7.90;;;5.47;;
65279;SDS011;51878;55.748;48.742;2022-07-03T05:25:57;9.73;;;6.30;;
65279;SDS011;51878;55.748;48.742;2022-07-03T05:28:25;11.27;;;5.07;;
65279;SDS011;51878;55.748;48.742;2022-07-03T05:30:52;7.65;;;4.53;;
65279;SDS011;51878;55.748;48.742;2022-07-03T05:33:21;5.57;;;3.95;;
65279;SDS011;51878;55.748;48.742;2022-07-03T05:35:49;5.80;;;3.42;;
65279;SDS011;51878;55.748;48.742;2022-07-03T05:38:16;5.40;;;4.13;;
65279;SDS011;51878;55.748;48.742;2022-07-03T05:41:06;4.63;;;3.80;;
65279;SDS011;51878;55.748;48.742;2022-07-03T05:43:36;6.38;;;3.40;;
65279;SDS011;51878;55.748;48.742;2022-07-03T05:46:21;5.22;;;3.10;;
65279;SDS011;51878;55.748;48.742;2022-07-03T05:48:48;3.90;;;3.15;;
65279;SDS011;51878;55.748;48.742;2022-07-03T05:51:15;14.82;;;3.10;;
65279;SDS011;51878;55.748;48.742;2022-07-03T05:53:42;5.80;;;3.30;;
65279;SDS011;51878;55.748;48.742;2022-07-03T05:56:09;5.40;;;2.92;;
65279;SDS011;51878;55.748;48.742;2022-07-03T05:58:37;3.95;;;2.90;;
65279;SDS011;51878;55.748;48.742;2022-07-03T06:01:04;4.30;;;3.20;;
65279;SDS011;51878;55.748;48.742;2022-07-03T06:03:31;6.82;;;3.05;;
65279;SDS011;51878;55.748;48.742;2022-07-03T06:05:59;6.18;;;3.08;;
65279;SDS011;51878;55.748;48.742;2022-07-03T06:08:26;5.28;;;3.15;;
65279;SDS011;51878;55.748;48.742;2022-07-03T06:10:53;3.80;;;2.70;;
65279;SDS011;51878;55.748;48.742;2022-07-03T06:13:22;3.53;;;2.65;;
65279;SDS011;51878;55.748;48.742;2022-07-03T06:15:49;9.20;;;2.72;;
65279;SDS011;51878;55.748;48.742;2022-07-03T06:18:16;4.40;;;2.88;;
65279;SDS011;51878;55.748;48.742;2022-07-03T06:20:43;3.13;;;2.83;;
65279;SDS011;51878;55.748;48.742;2022-07-03T06:23:13;3.97;;;2.92;;
65279;SDS011;51878;55.748;48.742;2022-07-03T06:26:00;8.75;;;3.05;;
65279;SDS011;51878;55.748;48.742;2022-07-03T06:28:27;4.95;;;3.00;;
65279;SDS011;51878;55.748;48.742;2022-07-03T06:30:55;3.28;;;2.67;;
65279;SDS011;51878;55.748;48.742;2022-07-03T06:33:22;6.15;;;3.10;;
65279;SDS011;51878;55.748;48.742;2022-07-03T06:35:49;7.47;;;3.17;;
65279;SDS011;51878;55.748;48.742;2022-07-03T06:38:16;4.45;;;2.90;;
65279;SDS011;51878;55.748;48.742;2022-07-03T06:40:43;4.75;;;2.95;;
65279;SDS011;51878;55.748;48.742;2022-07-03T06:43:11;4.88;;;2.60;;
65279;SDS011;51878;55.748;48.742;2022-07-03T06:45:41;3.83;;;2.78;;
65279;SDS011;51878;55.748;48.742;2022-07-03T06:48:08;2.97;;;2.42;;
65279;SDS011;51878;55.748;48.742;2022-07-03T06:50:35;4.05;;;2.50;;
65279;SDS011;51878;55.748;48.742;2022-07-03T06:53:02;7.68;;;2.30;;
65279;SDS011;51878;55.748;48.742;2022-07-03T06:55:29;5.03;;;2.33;;
65279;SDS011;51878;55.748;48.742;2022-07-03T06:57:56;10.95;;;2.20;;
65279;SDS011;51878;55.748;48.742;2022-07-03T07:00:24;7.75;;;2.47;;
65279;SDS011;51878;55.748;48.742;2022-07-03T07:02:51;3.67;;;2.33;;
65279;SDS011;51878;55.748;48.742;2022-07-03T07:05:18;6.93;;;2.38;;
65279;SDS011;51878;55.748;48.742;2022-07-03T07:07:45;3.17;;;2.00;;
65279;SDS011;51878;55.748;48.742;2022-07-03T07:10:12;4.13;;;2.25;;
65279;SDS011;51878;55.748;48.742;2022-07-03T07:12:39;3.08;;;2.13;;
65279;SDS011;51878;55.748;48.742;2022-07-03T07:15:07;3.85;;;2.38;;
65279;SDS011;51878;55.748;48.742;2022-07-03T07:17:35;2.63;;;2.42;;
65279;SDS011;51878;55.748;48.742;2022-07-03T07:20:02;3.33;;;2.40;;
65279;SDS011;51878;55.748;48.742;2022-07-03T07:22:30;2.80;;;2.30;;
65279;SDS011;51878;55.748;48.742;2022-07-03T07:24:57;4.45;;;2.30;;
65279;SDS011;51878;55.748;48.742;2022-07-03T07:27:31;2.75;;;2.17;;
65279;SDS011;51878;55.748;48.742;2022-07-03T07:29:58;3.30;;;2.38;;
65279;SDS011;51878;55.748;48.742;2022-07-03T07:32:25;3.17;;;2.30;;
65279;SDS011;51878;55.748;48.742;2022-07-03T07:34:53;3.65;;;2.03;;
65279;SDS011;51878;55.748;48.742;2022-07-03T07:37:20;5.50;;;2.25;;
65279;SDS011;51878;55.748;48.742;2022-07-03T07:39:47;3.83;;;2.40;;
65279;SDS011;51878;55.748;48.742;2022-07-03T07:42:14;4.57;;;2.38;;
65279;SDS011;51878;55.748;48.742;2022-07-03T07:44:42;3.67;;;2.20;;
65279;SDS011;51878;55.748;48.742;2022-07-03T07:47:09;4.75;;;2.60;;
65279;SDS011;51878;55.748;48.742;2022-07-03T07:49:37;5.30;;;2.63;;
65279;SDS011;51878;55.748;48.742;2022-07-03T07:52:04;8.88;;;2.70;;
65279;SDS011;51878;55.748;48.742;2022-07-03T07:54:31;4.15;;;2.80;;
65279;SDS011;51878;55.748;48.742;2022-07-03T07:56:58;3.33;;;2.65;;
65279;SDS011;51878;55.748;48.742;2022-07-03T07:59:26;4.78;;;2.47;;
65279;SDS011;51878;55.748;48.742;2022-07-03T08:01:53;7.32;;;2.38;;
65279;SDS011;51878;55.748;48.742;2022-07-03T08:04:38;5.10;;;2.65;;
65279;SDS011;51878;55.748;48.742;2022-07-03T08:07:24;6.72;;;2.60;;
65279;SDS011;51878;55.748;48.742;2022-07-03T08:09:51;3.80;;;2.30;;
65279;SDS011;51878;55.748;48.742;2022-07-03T08:12:19;3.92;;;2.30;;
65279;SDS011;51878;55.748;48.742;2022-07-03T08:14:47;2.55;;;2.35;;
65279;SDS011;51878;55.748;48.742;2022-07-03T08:17:14;7.22;;;2.90;;
65279;SDS011;51878;55.748;48.742;2022-07-03T08:19:41;5.05;;;2.78;;
65279;SDS011;51878;55.748;48.742;2022-07-03T08:22:08;5.15;;;2.72;;
65279;SDS011;51878;55.748;48.742;2022-07-03T08:24:35;7.60;;;2.50;;
65279;SDS011;51878;55.748;48.742;2022-07-03T08:29:36;2.67;;;2.47;;
65279;SDS011;51878;55.748;48.742;2022-07-03T08:32:03;3.53;;;2.35;;
65279;SDS011;51878;55.748;48.742;2022-07-03T08:34:31;5.90;;;2.50;;
65279;SDS011;51878;55.748;48.742;2022-07-03T08:36:58;6.93;;;2.92;;
65279;SDS011;51878;55.748;48.742;2022-07-03T08:39:25;2.63;;;2.25;;
65279;SDS011;51878;55.748;48.742;2022-07-03T08:41:53;6.45;;;2.78;;
65279;SDS011;51878;55.748;48.742;2022-07-03T08:44:22;4.93;;;2.30;;
65279;SDS011;51878;55.748;48.742;2022-07-03T08:46:51;5.15;;;2.70;;
65279;SDS011;51878;55.748;48.742;2022-07-03T08:49:19;5.00;;;2.67;;
65279;SDS011;51878;55.748;48.742;2022-07-03T08:51:49;6.13;;;2.50;;
65279;SDS011;51878;55.748;48.742;2022-07-03T08:54:16;4.85;;;2.75;;
65279;SDS011;51878;55.748;48.742;2022-07-03T08:56:44;10.32;;;2.80;;
65279;SDS011;51878;55.748;48.742;2022-07-03T08:59:12;3.63;;;2.80;;
65279;SDS011;51878;55.748;48.742;2022-07-03T09:01:41;2.78;;;2.50;;
65279;SDS011;51878;55.748;48.742;2022-07-03T09:04:11;4.78;;;3.15;;
65279;SDS011;51878;55.748;48.742;2022-07-03T09:06:40;6.90;;;2.78;;
65279;SDS011;51878;55.748;48.742;2022-07-03T09:09:08;3.72;;;2.60;;
65279;SDS011;51878;55.748;48.742;2022-07-03T09:11:39;4.25;;;2.58;;
65279;SDS011;51878;55.748;48.742;2022-07-03T09:14:06;7.22;;;2.55;;
65279;SDS011;51878;55.748;48.742;2022-07-03T09:16:36;4.85;;;2.83;;
65279;SDS011;51878;55.748;48.742;2022-07-03T09:19:04;2.60;;;2.20;;
65279;SDS011;51878;55.748;48.742;2022-07-03T09:21:35;3.45;;;2.30;;
65279;SDS011;51878;55.748;48.742;2022-07-03T09:24:09;6.80;;;2.28;;
65279;SDS011;51878;55.748;48.742;2022-07-03T09:26:50;2.60;;;2.10;;
65279;SDS011;51878;55.748;48.742;2022-07-03T09:29:19;3.20;;;2.20;;
65279;SDS011;51878;55.748;48.742;2022-07-03T09:31:53;4.45;;;2.30;;
65279;SDS011;51878;55.748;48.742;2022-07-03T09:34:22;4.35;;;2.50;;
65279;SDS011;51878;55.748;48.742;2022-07-03T09:36:50;3.78;;;2.42;;
65279;SDS011;51878;55.748;48.742;2022-07-03T09:39:25;7.35;;;2.47;;
65279;SDS011;51878;55.748;48.742;2022-07-03T09:42:03;3.67;;;2.45;;
65279;SDS011;51878;55.748;48.742;2022-07-03T09:44:39;4.45;;;2.60;;
65279;SDS011;51878;55.748;48.742;2022-07-03T09:47:25;4.00;;;2.63;;
65279;SDS011;51878;55.748;48.742;2022-07-03T09:49:53;3.05;;;2.38;;
65279;SDS011;51878;55.748;48.742;2022-07-03T09:52:34;4.70;;;2.40;;
65279;SDS011;51878;55.748;48.742;2022-07-03T10:00:23;4.03;;;2.60;;
65279;SDS011;51878;55.748;48.742;2022-07-03T10:02:55;3.05;;;2.67;;
65279;SDS011;51878;55.748;48.742;2022-07-03T10:08:13;4.25;;;2.60;;
65279;SDS011;51878;55.748;48.742;2022-07-03T10:10:46;4.85;;;2.33;;
65279;SDS011;51878;55.748;48.742;2022-07-03T10:13:14;5.32;;;3.05;;
65279;SDS011;51878;55.748;48.742;2022-07-03T10:15:42;5.20;;;2.72;;
65279;SDS011;51878;55.748;48.742;2022-07-03T10:48:59;4.88;;;2.80;;
65279;SDS011;51878;55.748;48.742;2022-07-03T10:51:31;4.15;;;2.72;;
65279;SDS011;51878;55.748;48.742;2022-07-03T10:54:34;5.15;;;2.75;;
65279;SDS011;51878;55.748;48.742;2022-07-03T10:57:15;5.55;;;2.35;;
65279;SDS011;51878;55.748;48.742;2022-07-03T11:10:29;3.90;;;2.50;;
65279;SDS011;51878;55.748;48.742;2022-07-03T11:13:24;4.93;;;2.47;;
65279;SDS011;51878;55.748;48.742;2022-07-03T11:15:54;6.15;;;2.75;;
65279;SDS011;51878;55.748;48.742;2022-07-03T11:24:21;6.78;;;2.70;;
65279;SDS011;51878;55.748;48.742;2022-07-03T11:26:29;6.13;;;2.90;;
65279;SDS011;51878;55.748;48.742;2022-07-03T11:28:57;6.75;;;2.88;;
65279;SDS011;51878;55.748;48.742;2022-07-03T11:31:24;3.47;;;2.22;;
65279;SDS011;51878;55.748;48.742;2022-07-03T11:41:28;9.17;;;2.57;;
65279;SDS011;51878;55.748;48.742;2022-07-03T11:44:00;5.18;;;2.63;;
65279;SDS011;51878;55.748;48.742;2022-07-03T11:46:30;6.65;;;2.92;;
65279;SDS011;51878;55.748;48.742;2022-07-03T11:49:11;4.45;;;2.58;;
65279;SDS011;51878;55.748;48.742;2022-07-03T11:51:40;4.60;;;2.60;;
65279;SDS011;51878;55.748;48.742;2022-07-03T11:54:09;5.60;;;2.95;;
65279;SDS011;51878;55.748;48.742;2022-07-03T11:56:36;5.60;;;2.85;;
65279;SDS011;51878;55.748;48.742;2022-07-03T11:59:06;8.50;;;2.90;;
65279;SDS011;51878;55.748;48.742;2022-07-03T12:01:34;6.68;;;2.85;;
65279;SDS011;51878;55.748;48.742;2022-07-03T12:04:07;4.75;;;2.40;;
65279;SDS011;51878;55.748;48.742;2022-07-03T12:06:48;4.80;;;2.63;;
65279;SDS011;51878;55.748;48.742;2022-07-03T12:09:22;7.35;;;2.40;;
65279;SDS011;51878;55.748;48.742;2022-07-03T12:14:33;4.85;;;2.10;;
65279;SDS011;51878;55.748;48.742;2022-07-03T12:17:24;2.92;;;1.80;;
65279;SDS011;51878;55.748;48.742;2022-07-03T12:19:53;3.00;;;2.20;;
65279;SDS011;51878;55.748;48.742;2022-07-03T12:22:24;3.65;;;2.15;;
65279;SDS011;51878;55.748;48.742;2022-07-03T12:24:56;4.70;;;2.13;;
65279;SDS011;51878;55.748;48.742;2022-07-03T12:27:43;5.13;;;2.20;;
65279;SDS011;51878;55.748;48.742;2022-07-03T12:30:12;3.10;;;2.22;;
65279;SDS011;51878;55.748;48.742;2022-07-03T12:32:49;4.88;;;1.98;;
65279;SDS011;51878;55.748;48.742;2022-07-03T12:35:34;5.22;;;2.03;;
65279;SDS011;51878;55.748;48.742;2022-07-03T12:38:01;6.50;;;2.03;;
65279;SDS011;51878;55.748;48.742;2022-07-03T12:40:29;2.30;;;2.10;;
65279;SDS011;51878;55.748;48.742;2022-07-03T12:42:56;3.03;;;1.92;;
65279;SDS011;51878;55.748;48.742;2022-07-03T12:45:25;2.83;;;1.90;;
65279;SDS011;51878;55.748;48.742;2022-07-03T12:47:58;2.20;;;1.88;;
65279;SDS011;51878;55.748;48.742;2022-07-03T12:50:48;7.88;;;2.13;;
65279;SDS011;51878;55.748;48.742;2022-07-03T12:53:28;2.47;;;2.00;;
65279;SDS011;51878;55.748;48.742;2022-07-03T12:56:00;5.45;;;2.10;;
65279;SDS011;51878;55.748;48.742;2022-07-03T12:58:31;7.18;;;2.47;;
65279;SDS011;51878;55.748;48.742;2022-07-03T13:01:29;2.53;;;1.98;;
65279;SDS011;51878;55.748;48.742;2022-07-03T13:04:00;4.03;;;1.90;;
65279;SDS011;51878;55.748;48.742;2022-07-03T13:06:27;2.10;;;1.90;;
65279;SDS011;51878;55.748;48.742;2022-07-03T13:08:56;3.58;;;1.80;;
65279;SDS011;51878;55.748;48.742;2022-07-03T13:11:26;5.95;;;2.15;;
65279;SDS011;51878;55.748;48.742;2022-07-03T13:14:00;7.97;;;2.03;;
65279;SDS011;51878;55.748;48.742;2022-07-03T13:16:39;4.10;;;2.10;;
65279;SDS011;51878;55.748;48.742;2022-07-03T13:19:08;3.58;;;1.80;;
65279;SDS011;51878;55.748;48.742;2022-07-03T13:21:37;3.53;;;1.98;;
65279;SDS011;51878;55.748;48.742;2022-07-03T13:24:06;4.20;;;1.90;;
65279;SDS011;51878;55.748;48.742;2022-07-03T13:26:34;3.35;;;1.88;;
65279;SDS011;51878;55.748;48.742;2022-07-03T13:29:02;6.57;;;2.00;;
65279;SDS011;51878;55.748;48.742;2022-07-03T13:31:30;4.80;;;1.90;;
65279;SDS011;51878;55.748;48.742;2022-07-03T13:33:58;1.88;;;1.70;;
65279;SDS011;51878;55.748;48.742;2022-07-03T13:36:26;3.22;;;1.55;;
65279;SDS011;51878;55.748;48.742;2022-07-03T13:38:54;2.67;;;1.50;;
65279;SDS011;51878;55.748;48.742;2022-07-03T13:41:22;2.65;;;1.63;;
65279;SDS011;51878;55.748;48.742;2022-07-03T13:43:50;1.65;;;1.52;;
65279;SDS011;51878;55.748;48.742;2022-07-03T13:46:19;4.75;;;1.80;;
65279;SDS011;51878;55.748;48.742;2022-07-03T13:48:51;3.58;;;2.10;;
65279;SDS011;51878;55.748;48.742;2022-07-03T13:51:19;3.70;;;1.67;;
65279;SDS011;51878;55.748;48.742;2022-07-03T13:53:47;2.50;;;1.55;;
65279;SDS011;51878;55.748;48.742;2022-07-03T13:56:15;2.67;;;1.75;;
65279;SDS011;51878;55.748;48.742;2022-07-03T13:58:43;2.28;;;1.80;;
65279;SDS011;51878;55.748;48.742;2022-07-03T14:01:16;8.20;;;2.10;;
65279;SDS011;51878;55.748;48.742;2022-07-03T14:03:43;1.98;;;1.77;;
65279;SDS011;51878;55.748;48.742;2022-07-03T14:06:11;7.00;;;1.98;;
65279;SDS011;51878;55.748;48.742;2022-07-03T14:08:38;2.25;;;1.60;;
65279;SDS011;51878;55.748;48.742;2022-07-03T14:11:05;2.22;;;1.67;;
65279;SDS011;51878;55.748;48.742;2022-07-03T14:13:32;2.55;;;1.88;;
65279;SDS011;51878;55.748;48.742;2022-07-03T14:15:59;4.80;;;1.98;;
65279;SDS011;51878;55.748;48.742;2022-07-03T14:18:27;3.05;;;1.90;;
65279;SDS011;51878;55.748;48.742;2022-07-03T14:20:55;2.42;;;2.00;;
65279;SDS011;51878;55.748;48.742;2022-07-03T14:23:22;7.28;;;2.22;;
65279;SDS011;51878;55.748;48.742;2022-07-03T14:25:50;3.47;;;2.00;;
65279;SDS011;51878;55.748;48.742;2022-07-03T14:28:21;6.72;;;2.67;;
65279;SDS011;51878;55.748;48.742;2022-07-03T14:31:07;3.75;;;2.13;;
65279;SDS011;51878;55.748;48.742;2022-07-03T14:33:46;4.05;;;1.85;;
65279;SDS011;51878;55.748;48.742;2022-07-03T14:36:16;4.38;;;2.22;;
65279;SDS011;51878;55.748;48.742;2022-07-03T14:39:04;3.33;;;2.20;;
65279;SDS011;51878;55.748;48.742;2022-07-03T14:41:31;10.00;;;2.20;;
65279;SDS011;51878;55.748;48.742;2022-07-03T14:43:58;6.03;;;2.28;;
65279;SDS011;51878;55.748;48.742;2022-07-03T14:46:25;4.28;;;2.20;;
65279;SDS011;51878;55.748;48.742;2022-07-03T14:48:52;2.78;;;2.28;;
65279;SDS011;51878;55.748;48.742;2022-07-03T14:51:20;5.07;;;2.30;;
65279;SDS011;51878;55.748;48.742;2022-07-03T14:53:47;2.53;;;2.00;;
65279;SDS011;51878;55.748;48.742;2022-07-03T14:56:16;3.83;;;2.20;;
65279;SDS011;51878;55.748;48.742;2022-07-03T14:58:45;5.22;;;2.45;;
65279;SDS011;51878;55.748;48.742;2022-07-03T15:01:15;3.15;;;2.00;;
65279;SDS011;51878;55.748;48.742;2022-07-03T15:03:53;6.33;;;2.33;;
65279;SDS011;51878;55.748;48.742;2022-07-03T15:06:26;3.65;;;2.08;;
65279;SDS011;51878;55.748;48.742;2022-07-03T15:09:01;3.05;;;2.20;;
65279;SDS011;51878;55.748;48.742;2022-07-03T15:11:32;3.30;;;1.98;;
65279;SDS011;51878;55.748;48.742;2022-07-03T15:14:19;4.40;;;2.00;;
65279;SDS011;51878;55.748;48.742;2022-07-03T15:16:47;4.28;;;2.13;;
65279;SDS011;51878;55.748;48.742;2022-07-03T15:19:18;4.18;;;1.88;;
65279;SDS011;51878;55.748;48.742;2022-07-03T15:21:48;3.58;;;2.05;;
65279;SDS011;51878;55.748;48.742;2022-07-03T15:24:15;3.25;;;2.10;;
65279;SDS011;51878;55.748;48.742;2022-07-03T15:26:50;14.20;;;2.28;;
65279;SDS011;51878;55.748;48.742;2022-07-03T15:29:19;5.90;;;2.22;;
65279;SDS011;51878;55.748;48.742;2022-07-03T15:31:46;5.07;;;2.33;;
65279;SDS011;51878;55.748;48.742;2022-07-03T15:34:14;4.07;;;2.08;;
65279;SDS011;51878;55.748;48.742;2022-07-03T15:36:48;3.15;;;2.03;;
65279;SDS011;51878;55.748;48.742;2022-07-03T15:40:09;3.20;;;1.67;;
65279;SDS011;51878;55.748;48.742;2022-07-03T15:42:26;2.78;;;1.90;;
65279;SDS011;51878;55.748;48.742;2022-07-03T15:45:07;3.10;;;1.77;;
65279;SDS011;51878;55.748;48.742;2022-07-03T15:47:55;2.92;;;1.90;;
65279;SDS011;51878;55.748;48.742;2022-07-03T15:53:36;6.90;;;2.20;;
65279;SDS011;51878;55.748;48.742;2022-07-03T15:56:05;5.60;;;2.00;;
65279;SDS011;51878;55.748;48.742;2022-07-03T15:58:34;2.67;;;2.00;;
65279;SDS011;51878;55.748;48.742;2022-07-03T16:01:03;6.88;;;2.10;;
65279;SDS011;51878;55.748;48.742;2022-07-03T16:06:58;3.33;;;1.90;;
65279;SDS011;51878;55.748;48.742;2022-07-03T16:09:26;2.28;;;1.88;;
65279;SDS011;51878;55.748;48.742;2022-07-03T16:11:54;2.42;;;1.90;;
65279;SDS011;51878;55.748;48.742;2022-07-03T16:14:21;1.90;;;1.70;;
65279;SDS011;51878;55.748;48.742;2022-07-03T16:16:50;1.92;;;1.58;;
65279;SDS011;51878;55.748;48.742;2022-07-03T16:19:17;3.38;;;1.83;;
65279;SDS011;51878;55.748;48.742;2022-07-03T16:21:46;3.92;;;2.00;;
65279;SDS011;51878;55.748;48.742;2022-07-03T16:24:16;2.42;;;1.63;;
65279;SDS011;51878;55.748;48.742;2022-07-03T16:26:44;3.42;;;1.90;;
65279;SDS011;51878;55.748;48.742;2022-07-03T16:29:11;2.72;;;1.73;;